sensor_id;sensor_type;location;lat;lon;timestamp;P1;durP1;ratioP1;P2;durP2;ratioP2
3901;SDS011;1966;49.908;9.156;2022-08-19T00:03:28;19.67;;;16.87;;
3901;SDS011;1966;49.908;9.156;2022-08-19T00:08:27;18.87;;;16.40;;
3901;SDS011;1966;49.908;9.156;2022-08-19T00:13:27;18.60;;;16.30;;
3901;SDS011;1966;49.908;9.156;2022-08-19T00:18:27;18.97;;;16.33;;
3901;SDS011;1966;49.908;9.156;2022-08-19T00:23:27;20.90;;;17.00;;
3901;SDS011;1966;49.908;9.156;2022-08-19T00:28:28;25.43;;;16.60;;
3901;SDS011;1966;49.908;9.156;2022-08-19T00:33:28;20.10;;;17.33;;
3901;SDS011;1966;49.908;9.156;2022-08-19T00:38:32;19.13;;;16.47;;
3901;SDS011;1966;49.908;9.156;2022-08-19T00:43:31;19.47;;;16.60;;
3901;SDS011;1966;49.908;9.156;2022-08-19T00:48:31;21.97;;;17.83;;
3901;SDS011;1966;49.908;9.156;2022-08-19T00:53:32;20.67;;;16.70;;
3901;SDS011;1966;49.908;9.156;2022-08-19T00:58:33;21.90;;;18.40;;
3901;SDS011;1966;49.908;9.156;2022-08-19T01:03:33;21.40;;;16.80;;
3901;SDS011;1966;49.908;9.156;2022-08-19T01:08:33;23.00;;;17.50;;
3901;SDS011;1966;49.908;9.156;2022-08-19T01:13:33;20.80;;;17.47;;
3901;SDS011;1966;49.908;9.156;2022-08-19T01:18:35;21.80;;;16.70;;
3901;SDS011;1966;49.908;9.156;2022-08-19T01:23:37;20.83;;;18.00;;
3901;SDS011;1966;49.908;9.156;2022-08-19T01:28:43;21.13;;;18.13;;
3901;SDS011;1966;49.908;9.156;2022-08-19T01:33:42;22.23;;;17.90;;
3901;SDS011;1966;49.908;9.156;2022-08-19T01:38:43;20.70;;;17.70;;
3901;SDS011;1966;49.908;9.156;2022-08-19T01:43:44;22.47;;;18.20;;
3901;SDS011;1966;49.908;9.156;2022-08-19T01:48:44;20.73;;;17.07;;
3901;SDS011;1966;49.908;9.156;2022-08-19T01:53:48;20.07;;;16.70;;
3901;SDS011;1966;49.908;9.156;2022-08-19T01:58:48;21.00;;;17.30;;
3901;SDS011;1966;49.908;9.156;2022-08-19T02:03:48;21.27;;;18.23;;
3901;SDS011;1966;49.908;9.156;2022-08-19T02:08:51;23.03;;;18.70;;
3901;SDS011;1966;49.908;9.156;2022-08-19T02:13:50;20.23;;;16.80;;
3901;SDS011;1966;49.908;9.156;2022-08-19T02:18:50;25.73;;;18.03;;
3901;SDS011;1966;49.908;9.156;2022-08-19T02:23:51;24.23;;;19.67;;
3901;SDS011;1966;49.908;9.156;2022-08-19T02:28:50;26.70;;;18.47;;
3901;SDS011;1966;49.908;9.156;2022-08-19T02:33:49;24.60;;;18.27;;
3901;SDS011;1966;49.908;9.156;2022-08-19T02:38:52;23.90;;;19.43;;
3901;SDS011;1966;49.908;9.156;2022-08-19T02:43:51;25.97;;;20.37;;
3901;SDS011;1966;49.908;9.156;2022-08-19T02:48:51;20.60;;;17.50;;
3901;SDS011;1966;49.908;9.156;2022-08-19T02:53:53;23.33;;;18.73;;
3901;SDS011;1966;49.908;9.156;2022-08-19T02:58:52;21.87;;;18.47;;
3901;SDS011;1966;49.908;9.156;2022-08-19T03:03:52;25.33;;;19.50;;
3901;SDS011;1966;49.908;9.156;2022-08-19T03:08:53;22.80;;;19.13;;
3901;SDS011;1966;49.908;9.156;2022-08-19T03:13:52;23.20;;;19.10;;
3901;SDS011;1966;49.908;9.156;2022-08-19T03:18:52;22.40;;;18.70;;
3901;SDS011;1966;49.908;9.156;2022-08-19T03:23:54;26.33;;;20.37;;
3901;SDS011;1966;49.908;9.156;2022-08-19T03:28:54;21.90;;;18.00;;
3901;SDS011;1966;49.908;9.156;2022-08-19T03:33:53;23.13;;;18.57;;
3901;SDS011;1966;49.908;9.156;2022-08-19T03:38:53;20.53;;;16.93;;
3901;SDS011;1966;49.908;9.156;2022-08-19T03:43:54;24.43;;;17.40;;
3901;SDS011;1966;49.908;9.156;2022-08-19T03:48:54;19.70;;;17.00;;
3901;SDS011;1966;49.908;9.156;2022-08-19T03:53:55;20.80;;;17.13;;
3901;SDS011;1966;49.908;9.156;2022-08-19T03:58:56;20.37;;;16.63;;
3901;SDS011;1966;49.908;9.156;2022-08-19T04:03:56;19.53;;;16.53;;
3901;SDS011;1966;49.908;9.156;2022-08-19T04:08:56;23.80;;;17.20;;
3901;SDS011;1966;49.908;9.156;2022-08-19T04:13:57;21.60;;;17.13;;
3901;SDS011;1966;49.908;9.156;2022-08-19T04:18:58;19.87;;;17.37;;
3901;SDS011;1966;49.908;9.156;2022-08-19T04:23:58;22.77;;;18.20;;
3901;SDS011;1966;49.908;9.156;2022-08-19T04:28:59;22.37;;;17.37;;
3901;SDS011;1966;49.908;9.156;2022-08-19T04:33:59;23.83;;;17.60;;
3901;SDS011;1966;49.908;9.156;2022-08-19T04:39:02;19.53;;;16.20;;
3901;SDS011;1966;49.908;9.156;2022-08-19T04:44:03;19.90;;;16.80;;
3901;SDS011;1966;49.908;9.156;2022-08-19T04:49:03;22.13;;;17.83;;
3901;SDS011;1966;49.908;9.156;2022-08-19T04:54:03;20.33;;;17.17;;
3901;SDS011;1966;49.908;9.156;2022-08-19T04:59:04;19.57;;;16.47;;
3901;SDS011;1966;49.908;9.156;2022-08-19T05:04:04;25.20;;;17.23;;
3901;SDS011;1966;49.908;9.156;2022-08-19T05:09:04;23.67;;;17.47;;
3901;SDS011;1966;49.908;9.156;2022-08-19T05:14:05;19.93;;;16.20;;
3901;SDS011;1966;49.908;9.156;2022-08-19T05:19:04;22.63;;;17.13;;
3901;SDS011;1966;49.908;9.156;2022-08-19T05:24:22;20.93;;;17.73;;
3901;SDS011;1966;49.908;9.156;2022-08-19T05:29:23;19.40;;;16.57;;
3901;SDS011;1966;49.908;9.156;2022-08-19T05:34:23;18.37;;;16.20;;
3901;SDS011;1966;49.908;9.156;2022-08-19T05:39:25;23.17;;;17.37;;
3901;SDS011;1966;49.908;9.156;2022-08-19T05:44:26;20.63;;;16.57;;
3901;SDS011;1966;49.908;9.156;2022-08-19T05:49:29;20.60;;;17.30;;
3901;SDS011;1966;49.908;9.156;2022-08-19T05:54:28;20.10;;;16.97;;
3901;SDS011;1966;49.908;9.156;2022-08-19T05:59:29;19.73;;;17.00;;
3901;SDS011;1966;49.908;9.156;2022-08-19T06:04:28;23.17;;;17.93;;
3901;SDS011;1966;49.908;9.156;2022-08-19T06:09:28;24.80;;;16.47;;
3901;SDS011;1966;49.908;9.156;2022-08-19T06:14:27;21.63;;;16.93;;
3901;SDS011;1966;49.908;9.156;2022-08-19T06:19:29;21.70;;;15.90;;
3901;SDS011;1966;49.908;9.156;2022-08-19T06:24:29;23.07;;;16.23;;
3901;SDS011;1966;49.908;9.156;2022-08-19T06:29:28;21.37;;;17.27;;
3901;SDS011;1966;49.908;9.156;2022-08-19T06:34:31;19.33;;;14.80;;
3901;SDS011;1966;49.908;9.156;2022-08-19T06:39:33;19.27;;;16.30;;
3901;SDS011;1966;49.908;9.156;2022-08-19T06:44:33;26.50;;;16.23;;
3901;SDS011;1966;49.908;9.156;2022-08-19T06:49:35;21.20;;;15.40;;
3901;SDS011;1966;49.908;9.156;2022-08-19T06:54:35;24.87;;;17.30;;
3901;SDS011;1966;49.908;9.156;2022-08-19T06:59:34;20.33;;;15.00;;
3901;SDS011;1966;49.908;9.156;2022-08-19T07:04:36;24.63;;;14.53;;
3901;SDS011;1966;49.908;9.156;2022-08-19T07:09:37;17.37;;;14.73;;
3901;SDS011;1966;49.908;9.156;2022-08-19T07:14:37;16.63;;;13.87;;
3901;SDS011;1966;49.908;9.156;2022-08-19T07:19:38;18.40;;;13.60;;
3901;SDS011;1966;49.908;9.156;2022-08-19T07:24:39;18.13;;;13.90;;
3901;SDS011;1966;49.908;9.156;2022-08-19T07:29:38;25.97;;;14.07;;
3901;SDS011;1966;49.908;9.156;2022-08-19T07:34:39;16.97;;;13.00;;
3901;SDS011;1966;49.908;9.156;2022-08-19T07:39:38;16.00;;;12.37;;
3901;SDS011;1966;49.908;9.156;2022-08-19T07:44:38;15.13;;;12.90;;
3901;SDS011;1966;49.908;9.156;2022-08-19T07:49:37;17.57;;;13.90;;
3901;SDS011;1966;49.908;9.156;2022-08-19T07:54:38;22.57;;;14.00;;
3901;SDS011;1966;49.908;9.156;2022-08-19T07:59:38;14.73;;;13.00;;
3901;SDS011;1966;49.908;9.156;2022-08-19T08:04:38;18.47;;;13.50;;
3901;SDS011;1966;49.908;9.156;2022-08-19T08:09:56;14.10;;;12.67;;
3901;SDS011;1966;49.908;9.156;2022-08-19T08:14:57;14.63;;;10.57;;
3901;SDS011;1966;49.908;9.156;2022-08-19T08:19:56;14.27;;;11.40;;
3901;SDS011;1966;49.908;9.156;2022-08-19T08:24:57;14.00;;;11.70;;
3901;SDS011;1966;49.908;9.156;2022-08-19T08:29:59;13.20;;;10.17;;
3901;SDS011;1966;49.908;9.156;2022-08-19T08:34:58;15.50;;;11.33;;
3901;SDS011;1966;49.908;9.156;2022-08-19T08:40:01;11.60;;;10.50;;
3901;SDS011;1966;49.908;9.156;2022-08-19T08:45:02;19.60;;;13.03;;
3901;SDS011;1966;49.908;9.156;2022-08-19T08:50:04;15.70;;;11.37;;
3901;SDS011;1966;49.908;9.156;2022-08-19T08:55:07;12.37;;;10.43;;
3901;SDS011;1966;49.908;9.156;2022-08-19T09:00:08;15.27;;;10.77;;
3901;SDS011;1966;49.908;9.156;2022-08-19T09:05:09;14.00;;;10.90;;
3901;SDS011;1966;49.908;9.156;2022-08-19T09:10:17;11.37;;;9.33;;
3901;SDS011;1966;49.908;9.156;2022-08-19T09:15:20;16.63;;;9.30;;
3901;SDS011;1966;49.908;9.156;2022-08-19T09:20:23;11.40;;;9.00;;
3901;SDS011;1966;49.908;9.156;2022-08-19T09:25:25;8.70;;;7.90;;
3901;SDS011;1966;49.908;9.156;2022-08-19T09:30:25;10.27;;;8.20;;
3901;SDS011;1966;49.908;9.156;2022-08-19T09:35:25;8.63;;;6.07;;
3901;SDS011;1966;49.908;9.156;2022-08-19T09:40:28;6.00;;;5.50;;
3901;SDS011;1966;49.908;9.156;2022-08-19T09:45:27;5.67;;;5.07;;
3901;SDS011;1966;49.908;9.156;2022-08-19T09:50:27;11.30;;;6.47;;
3901;SDS011;1966;49.908;9.156;2022-08-19T09:55:27;7.97;;;6.57;;
3901;SDS011;1966;49.908;9.156;2022-08-19T10:00:27;7.80;;;6.70;;
3901;SDS011;1966;49.908;9.156;2022-08-19T10:05:27;5.87;;;5.37;;
3901;SDS011;1966;49.908;9.156;2022-08-19T10:10:45;4.80;;;4.10;;
3901;SDS011;1966;49.908;9.156;2022-08-19T10:15:45;8.67;;;6.37;;
3901;SDS011;1966;49.908;9.156;2022-08-19T10:20:44;11.73;;;7.00;;
3901;SDS011;1966;49.908;9.156;2022-08-19T10:25:46;10.60;;;6.50;;
3901;SDS011;1966;49.908;9.156;2022-08-19T10:30:45;11.70;;;6.60;;
3901;SDS011;1966;49.908;9.156;2022-08-19T10:35:45;6.10;;;5.03;;
3901;SDS011;1966;49.908;9.156;2022-08-19T10:40:46;6.90;;;4.53;;
3901;SDS011;1966;49.908;9.156;2022-08-19T10:45:48;7.00;;;4.90;;
3901;SDS011;1966;49.908;9.156;2022-08-19T10:50:50;5.10;;;3.87;;
3901;SDS011;1966;49.908;9.156;2022-08-19T10:56:09;5.60;;;3.43;;
3901;SDS011;1966;49.908;9.156;2022-08-19T11:01:26;7.40;;;3.80;;
3901;SDS011;1966;49.908;9.156;2022-08-19T11:06:28;6.87;;;3.67;;
3901;SDS011;1966;49.908;9.156;2022-08-19T11:11:29;4.80;;;4.30;;
3901;SDS011;1966;49.908;9.156;2022-08-19T11:16:30;3.87;;;3.50;;
3901;SDS011;1966;49.908;9.156;2022-08-19T11:21:31;4.63;;;4.23;;
3901;SDS011;1966;49.908;9.156;2022-08-19T11:26:32;5.00;;;4.53;;
3901;SDS011;1966;49.908;9.156;2022-08-19T11:31:33;5.07;;;4.20;;
3901;SDS011;1966;49.908;9.156;2022-08-19T11:36:36;4.73;;;4.43;;
3901;SDS011;1966;49.908;9.156;2022-08-19T11:41:38;7.53;;;4.53;;
3901;SDS011;1966;49.908;9.156;2022-08-19T11:46:38;4.90;;;4.40;;
3901;SDS011;1966;49.908;9.156;2022-08-19T11:51:37;7.73;;;4.70;;
3901;SDS011;1966;49.908;9.156;2022-08-19T11:56:38;4.17;;;3.77;;
3901;SDS011;1966;49.908;9.156;2022-08-19T12:01:38;5.23;;;4.40;;
3901;SDS011;1966;49.908;9.156;2022-08-19T12:06:39;8.68;;;4.20;;
3901;SDS011;1966;49.908;9.156;2022-08-19T12:11:41;4.90;;;4.50;;
3901;SDS011;1966;49.908;9.156;2022-08-19T12:16:40;4.65;;;4.30;;
3901;SDS011;1966;49.908;9.156;2022-08-19T12:21:40;4.50;;;3.95;;
3901;SDS011;1966;49.908;9.156;2022-08-19T12:26:41;5.65;;;4.55;;
3901;SDS011;1966;49.908;9.156;2022-08-19T12:31:41;7.40;;;4.53;;
3901;SDS011;1966;49.908;9.156;2022-08-19T12:36:40;4.57;;;4.10;;
3901;SDS011;1966;49.908;9.156;2022-08-19T12:41:41;4.80;;;4.38;;
3901;SDS011;1966;49.908;9.156;2022-08-19T12:46:40;4.27;;;3.87;;
3901;SDS011;1966;49.908;9.156;2022-08-19T12:51:40;5.53;;;4.57;;
3901;SDS011;1966;49.908;9.156;2022-08-19T12:56:42;5.37;;;4.50;;
3901;SDS011;1966;49.908;9.156;2022-08-19T13:01:42;5.20;;;4.70;;
3901;SDS011;1966;49.908;9.156;2022-08-19T13:06:42;5.73;;;5.20;;
3901;SDS011;1966;49.908;9.156;2022-08-19T13:11:43;4.80;;;4.30;;
3901;SDS011;1966;49.908;9.156;2022-08-19T13:16:43;5.00;;;4.60;;
3901;SDS011;1966;49.908;9.156;2022-08-19T13:21:42;4.93;;;4.43;;
3901;SDS011;1966;49.908;9.156;2022-08-19T13:26:43;6.53;;;4.40;;
3901;SDS011;1966;49.908;9.156;2022-08-19T13:31:43;5.33;;;4.83;;
3901;SDS011;1966;49.908;9.156;2022-08-19T13:37:00;4.67;;;4.30;;
3901;SDS011;1966;49.908;9.156;2022-08-19T13:42:02;4.83;;;4.40;;
3901;SDS011;1966;49.908;9.156;2022-08-19T13:47:04;6.50;;;4.40;;
3901;SDS011;1966;49.908;9.156;2022-08-19T13:52:05;5.00;;;4.50;;
3901;SDS011;1966;49.908;9.156;2022-08-19T13:57:06;4.37;;;3.97;;
3901;SDS011;1966;49.908;9.156;2022-08-19T14:02:06;4.93;;;3.97;;
3901;SDS011;1966;49.908;9.156;2022-08-19T14:07:05;4.00;;;3.70;;
3901;SDS011;1966;49.908;9.156;2022-08-19T14:12:07;4.60;;;3.90;;
3901;SDS011;1966;49.908;9.156;2022-08-19T14:17:06;4.87;;;3.87;;
3901;SDS011;1966;49.908;9.156;2022-08-19T14:22:07;3.88;;;3.58;;
3901;SDS011;1966;49.908;9.156;2022-08-19T14:27:08;7.85;;;3.65;;
3901;SDS011;1966;49.908;9.156;2022-08-19T14:32:08;3.85;;;3.60;;
3901;SDS011;1966;49.908;9.156;2022-08-19T14:37:07;3.80;;;3.58;;
3901;SDS011;1966;49.908;9.156;2022-08-19T14:42:09;4.47;;;4.07;;
3901;SDS011;1966;49.908;9.156;2022-08-19T14:47:08;6.25;;;5.75;;
3901;SDS011;1966;49.908;9.156;2022-08-19T14:52:09;6.63;;;6.13;;
3901;SDS011;1966;49.908;9.156;2022-08-19T14:57:12;6.97;;;6.40;;
3901;SDS011;1966;49.908;9.156;2022-08-19T15:02:14;7.33;;;6.73;;
3901;SDS011;1966;49.908;9.156;2022-08-19T15:07:13;7.77;;;7.07;;
3901;SDS011;1966;49.908;9.156;2022-08-19T15:12:14;7.80;;;7.10;;
3901;SDS011;1966;49.908;9.156;2022-08-19T15:17:14;7.70;;;7.00;;
3901;SDS011;1966;49.908;9.156;2022-08-19T15:22:14;9.00;;;8.10;;
3901;SDS011;1966;49.908;9.156;2022-08-19T15:27:15;9.17;;;8.20;;
3901;SDS011;1966;49.908;9.156;2022-08-19T15:32:14;8.63;;;7.63;;
3901;SDS011;1966;49.908;9.156;2022-08-19T15:37:14;8.60;;;7.70;;
3901;SDS011;1966;49.908;9.156;2022-08-19T15:42:15;8.30;;;7.50;;
3901;SDS011;1966;49.908;9.156;2022-08-19T15:47:15;8.27;;;7.47;;
3901;SDS011;1966;49.908;9.156;2022-08-19T15:52:18;8.10;;;7.30;;
3901;SDS011;1966;49.908;9.156;2022-08-19T15:57:19;7.90;;;7.30;;
3901;SDS011;1966;49.908;9.156;2022-08-19T16:02:36;8.43;;;7.63;;
3901;SDS011;1966;49.908;9.156;2022-08-19T16:07:53;8.03;;;7.30;;
3901;SDS011;1966;49.908;9.156;2022-08-19T16:12:55;7.70;;;7.00;;
3901;SDS011;1966;49.908;9.156;2022-08-19T16:17:55;7.40;;;6.80;;
3901;SDS011;1966;49.908;9.156;2022-08-19T16:22:55;7.73;;;6.97;;
3901;SDS011;1966;49.908;9.156;2022-08-19T16:27:57;6.83;;;6.23;;
3901;SDS011;1966;49.908;9.156;2022-08-19T16:32:57;7.43;;;6.73;;
3901;SDS011;1966;49.908;9.156;2022-08-19T16:37:56;7.50;;;6.80;;
3901;SDS011;1966;49.908;9.156;2022-08-19T16:42:57;8.10;;;7.40;;
3901;SDS011;1966;49.908;9.156;2022-08-19T16:47:57;7.13;;;6.53;;
3901;SDS011;1966;49.908;9.156;2022-08-19T16:52:56;7.60;;;6.90;;
3901;SDS011;1966;49.908;9.156;2022-08-19T16:57:58;7.40;;;6.67;;
3901;SDS011;1966;49.908;9.156;2022-08-19T17:03:05;8.03;;;7.23;;
3901;SDS011;1966;49.908;9.156;2022-08-19T17:08:05;7.87;;;7.07;;
3901;SDS011;1966;49.908;9.156;2022-08-19T17:13:06;8.00;;;6.87;;
3901;SDS011;1966;49.908;9.156;2022-08-19T17:18:06;13.47;;;7.17;;
3901;SDS011;1966;49.908;9.156;2022-08-19T17:23:06;8.10;;;7.40;;
3901;SDS011;1966;49.908;9.156;2022-08-19T17:28:07;8.73;;;7.20;;
3901;SDS011;1966;49.908;9.156;2022-08-19T17:33:07;8.80;;;6.77;;
3901;SDS011;1966;49.908;9.156;2022-08-19T17:38:07;8.20;;;7.30;;
3901;SDS011;1966;49.908;9.156;2022-08-19T17:43:08;7.70;;;7.00;;
3901;SDS011;1966;49.908;9.156;2022-08-19T17:48:09;10.57;;;7.17;;
3901;SDS011;1966;49.908;9.156;2022-08-19T17:53:08;8.00;;;7.20;;
3901;SDS011;1966;49.908;9.156;2022-08-19T17:58:09;8.50;;;7.80;;
3901;SDS011;1966;49.908;9.156;2022-08-19T18:03:09;8.43;;;7.70;;
3901;SDS011;1966;49.908;9.156;2022-08-19T18:08:09;7.57;;;6.97;;
3901;SDS011;1966;49.908;9.156;2022-08-19T18:13:11;8.37;;;7.50;;
3901;SDS011;1966;49.908;9.156;2022-08-19T18:18:11;7.83;;;7.10;;
3901;SDS011;1966;49.908;9.156;2022-08-19T18:23:10;7.80;;;7.07;;
3901;SDS011;1966;49.908;9.156;2022-08-19T18:28:11;12.40;;;7.60;;
3901;SDS011;1966;49.908;9.156;2022-08-19T18:33:11;7.70;;;6.97;;
3901;SDS011;1966;49.908;9.156;2022-08-19T18:38:13;9.17;;;8.30;;
3901;SDS011;1966;49.908;9.156;2022-08-19T18:43:31;8.87;;;8.07;;
3901;SDS011;1966;49.908;9.156;2022-08-19T18:49:03;8.80;;;8.00;;
3901;SDS011;1966;49.908;9.156;2022-08-19T18:54:02;9.10;;;8.20;;
3901;SDS011;1966;49.908;9.156;2022-08-19T18:59:03;9.70;;;8.70;;
3901;SDS011;1966;49.908;9.156;2022-08-19T19:04:04;9.87;;;8.53;;
3901;SDS011;1966;49.908;9.156;2022-08-19T19:09:04;10.03;;;9.13;;
3901;SDS011;1966;49.908;9.156;2022-08-19T19:14:06;9.30;;;8.27;;
3901;SDS011;1966;49.908;9.156;2022-08-19T19:19:08;9.97;;;8.97;;
3901;SDS011;1966;49.908;9.156;2022-08-19T19:24:10;10.50;;;9.20;;
3901;SDS011;1966;49.908;9.156;2022-08-19T19:29:12;9.90;;;8.90;;
3901;SDS011;1966;49.908;9.156;2022-08-19T19:34:13;9.80;;;8.80;;
3901;SDS011;1966;49.908;9.156;2022-08-19T19:39:12;9.43;;;8.50;;
3901;SDS011;1966;49.908;9.156;2022-08-19T19:44:13;11.57;;;9.37;;
3901;SDS011;1966;49.908;9.156;2022-08-19T19:49:14;10.27;;;9.27;;
3901;SDS011;1966;49.908;9.156;2022-08-19T19:54:14;10.23;;;9.23;;
3901;SDS011;1966;49.908;9.156;2022-08-19T19:59:15;10.80;;;9.40;;
3901;SDS011;1966;49.908;9.156;2022-08-19T20:04:15;10.37;;;9.47;;
3901;SDS011;1966;49.908;9.156;2022-08-19T20:09:15;10.37;;;9.27;;
3901;SDS011;1966;49.908;9.156;2022-08-19T20:14:17;11.50;;;9.97;;
3901;SDS011;1966;49.908;9.156;2022-08-19T20:19:18;10.87;;;9.87;;
3901;SDS011;1966;49.908;9.156;2022-08-19T20:24:19;12.77;;;10.10;;
3901;SDS011;1966;49.908;9.156;2022-08-19T20:29:21;10.50;;;9.50;;
3901;SDS011;1966;49.908;9.156;2022-08-19T20:34:21;10.20;;;9.20;;
3901;SDS011;1966;49.908;9.156;2022-08-19T20:39:21;10.50;;;9.37;;
3901;SDS011;1966;49.908;9.156;2022-08-19T20:44:22;10.90;;;9.23;;
3901;SDS011;1966;49.908;9.156;2022-08-19T20:49:22;10.33;;;8.73;;
3901;SDS011;1966;49.908;9.156;2022-08-19T20:54:21;11.50;;;8.77;;
3901;SDS011;1966;49.908;9.156;2022-08-19T20:59:23;10.63;;;9.63;;
3901;SDS011;1966;49.908;9.156;2022-08-19T21:04:23;10.70;;;8.90;;
3901;SDS011;1966;49.908;9.156;2022-08-19T21:09:23;11.70;;;9.57;;
3901;SDS011;1966;49.908;9.156;2022-08-19T21:14:24;10.03;;;9.00;;
3901;SDS011;1966;49.908;9.156;2022-08-19T21:19:24;10.80;;;9.30;;
3901;SDS011;1966;49.908;9.156;2022-08-19T21:24:24;12.23;;;9.93;;
3901;SDS011;1966;49.908;9.156;2022-08-19T21:29:24;11.67;;;10.33;;
3901;SDS011;1966;49.908;9.156;2022-08-19T21:34:24;11.87;;;10.17;;
3901;SDS011;1966;49.908;9.156;2022-08-19T21:39:24;10.03;;;9.03;;
3901;SDS011;1966;49.908;9.156;2022-08-19T21:44:24;9.70;;;8.80;;
3901;SDS011;1966;49.908;9.156;2022-08-19T21:49:24;9.70;;;8.80;;
3901;SDS011;1966;49.908;9.156;2022-08-19T21:54:25;10.90;;;9.80;;
3901;SDS011;1966;49.908;9.156;2022-08-19T21:59:26;11.00;;;9.70;;
3901;SDS011;1966;49.908;9.156;2022-08-19T22:04:25;11.30;;;9.47;;
3901;SDS011;1966;49.908;9.156;2022-08-19T22:09:25;9.90;;;8.90;;
3901;SDS011;1966;49.908;9.156;2022-08-19T22:14:26;11.77;;;9.43;;
3901;SDS011;1966;49.908;9.156;2022-08-19T22:19:26;12.10;;;10.00;;
3901;SDS011;1966;49.908;9.156;2022-08-19T22:24:26;10.40;;;9.30;;
3901;SDS011;1966;49.908;9.156;2022-08-19T22:29:27;11.27;;;9.47;;
3901;SDS011;1966;49.908;9.156;2022-08-19T22:34:26;13.20;;;10.30;;
3901;SDS011;1966;49.908;9.156;2022-08-19T22:39:27;11.30;;;10.10;;
3901;SDS011;1966;49.908;9.156;2022-08-19T22:44:27;11.30;;;10.10;;
3901;SDS011;1966;49.908;9.156;2022-08-19T22:49:27;10.83;;;9.73;;
3901;SDS011;1966;49.908;9.156;2022-08-19T22:54:27;10.60;;;9.60;;
3901;SDS011;1966;49.908;9.156;2022-08-19T22:59:27;11.33;;;10.23;;
3901;SDS011;1966;49.908;9.156;2022-08-19T23:04:27;11.27;;;10.10;;
3901;SDS011;1966;49.908;9.156;2022-08-19T23:09:27;10.37;;;9.27;;
3901;SDS011;1966;49.908;9.156;2022-08-19T23:14:28;13.70;;;9.47;;
3901;SDS011;1966;49.908;9.156;2022-08-19T23:19:27;11.67;;;9.00;;
3901;SDS011;1966;49.908;9.156;2022-08-19T23:24:27;10.20;;;9.20;;
3901;SDS011;1966;49.908;9.156;2022-08-19T23:29:28;12.73;;;9.23;;
3901;SDS011;1966;49.908;9.156;2022-08-19T23:34:45;10.20;;;9.23;;
3901;SDS011;1966;49.908;9.156;2022-08-19T23:39:44;10.97;;;9.23;;
3901;SDS011;1966;49.908;9.156;2022-08-19T23:44:45;13.60;;;10.17;;
3901;SDS011;1966;49.908;9.156;2022-08-19T23:49:45;11.03;;;9.93;;
3901;SDS011;1966;49.908;9.156;2022-08-19T23:54:45;12.23;;;10.03;;
3901;SDS011;1966;49.908;9.156;2022-08-19T23:59:46;12.37;;;11.07;;
